sensor_id;sensor_type;location;lat;lon;timestamp;P1;durP1;ratioP1;P2;durP2;ratioP2
17947;SDS011;9099;47.958;11.366;2023-12-22T00:01:59;1.73;;;0.30;;
17947;SDS011;9099;47.958;11.366;2023-12-22T00:04:26;0.73;;;0.15;;
17947;SDS011;9099;47.958;11.366;2023-12-22T00:06:53;1.15;;;0.30;;
17947;SDS011;9099;47.958;11.366;2023-12-22T00:09:20;0.40;;;0.20;;
17947;SDS011;9099;47.958;11.366;2023-12-22T00:11:47;0.98;;;0.30;;
17947;SDS011;9099;47.958;11.366;2023-12-22T00:14:13;1.20;;;0.60;;
17947;SDS011;9099;47.958;11.366;2023-12-22T00:16:42;1.17;;;0.30;;
17947;SDS011;9099;47.958;11.366;2023-12-22T00:19:08;0.47;;;0.25;;
17947;SDS011;9099;47.958;11.366;2023-12-22T00:21:35;0.75;;;0.50;;
17947;SDS011;9099;47.958;11.366;2023-12-22T00:24:02;1.65;;;0.40;;
17947;SDS011;9099;47.958;11.366;2023-12-22T00:26:29;1.10;;;0.75;;
17947;SDS011;9099;47.958;11.366;2023-12-22T00:28:56;1.30;;;0.40;;
17947;SDS011;9099;47.958;11.366;2023-12-22T00:31:22;2.60;;;0.63;;
17947;SDS011;9099;47.958;11.366;2023-12-22T00:33:51;1.08;;;0.43;;
17947;SDS011;9099;47.958;11.366;2023-12-22T00:36:17;1.20;;;0.30;;
17947;SDS011;9099;47.958;11.366;2023-12-22T00:38:48;1.45;;;0.25;;
17947;SDS011;9099;47.958;11.366;2023-12-22T00:41:14;0.77;;;0.30;;
17947;SDS011;9099;47.958;11.366;2023-12-22T00:43:41;1.50;;;0.40;;
17947;SDS011;9099;47.958;11.366;2023-12-22T00:46:08;1.10;;;0.28;;
17947;SDS011;9099;47.958;11.366;2023-12-22T00:48:35;0.30;;;0.20;;
17947;SDS011;9099;47.958;11.366;2023-12-22T00:51:03;0.57;;;0.30;;
17947;SDS011;9099;47.958;11.366;2023-12-22T00:53:32;0.47;;;0.30;;
17947;SDS011;9099;47.958;11.366;2023-12-22T00:55:59;0.57;;;0.30;;
17947;SDS011;9099;47.958;11.366;2023-12-22T00:58:26;0.30;;;0.10;;
17947;SDS011;9099;47.958;11.366;2023-12-22T01:00:53;0.57;;;0.32;;
17947;SDS011;9099;47.958;11.366;2023-12-22T01:03:19;0.25;;;0.10;;
17947;SDS011;9099;47.958;11.366;2023-12-22T01:05:46;0.20;;;0.20;;
17947;SDS011;9099;47.958;11.366;2023-12-22T01:08:14;0.75;;;0.10;;
17947;SDS011;9099;47.958;11.366;2023-12-22T01:10:41;0.35;;;0.17;;
17947;SDS011;9099;47.958;11.366;2023-12-22T01:13:08;0.10;;;0.10;;
17947;SDS011;9099;47.958;11.366;2023-12-22T01:15:35;0.10;;;0.00;;
17947;SDS011;9099;47.958;11.366;2023-12-22T01:18:02;0.17;;;0.10;;
17947;SDS011;9099;47.958;11.366;2023-12-22T01:20:29;0.20;;;0.10;;
17947;SDS011;9099;47.958;11.366;2023-12-22T01:22:56;0.20;;;0.10;;
17947;SDS011;9099;47.958;11.366;2023-12-22T01:25:24;0.47;;;0.20;;
17947;SDS011;9099;47.958;11.366;2023-12-22T01:27:51;1.20;;;0.10;;
17947;SDS011;9099;47.958;11.366;2023-12-22T01:30:18;0.32;;;0.20;;
17947;SDS011;9099;47.958;11.366;2023-12-22T01:32:45;0.52;;;0.10;;
17947;SDS011;9099;47.958;11.366;2023-12-22T01:35:11;0.35;;;0.20;;
17947;SDS011;9099;47.958;11.366;2023-12-22T01:37:39;0.85;;;0.10;;
17947;SDS011;9099;47.958;11.366;2023-12-22T01:40:06;0.10;;;0.10;;
17947;SDS011;9099;47.958;11.366;2023-12-22T01:42:35;0.65;;;0.10;;
17947;SDS011;9099;47.958;11.366;2023-12-22T01:45:02;0.32;;;0.15;;
17947;SDS011;9099;47.958;11.366;2023-12-22T01:47:29;0.50;;;0.10;;
17947;SDS011;9099;47.958;11.366;2023-12-22T01:49:56;0.57;;;0.17;;
17947;SDS011;9099;47.958;11.366;2023-12-22T01:52:23;0.82;;;0.10;;
17947;SDS011;9099;47.958;11.366;2023-12-22T01:54:51;1.65;;;0.20;;
17947;SDS011;9099;47.958;11.366;2023-12-22T01:57:20;0.63;;;0.10;;
17947;SDS011;9099;47.958;11.366;2023-12-22T01:59:48;0.43;;;0.10;;
17947;SDS011;9099;47.958;11.366;2023-12-22T02:02:16;0.32;;;0.20;;
17947;SDS011;9099;47.958;11.366;2023-12-22T02:04:43;0.05;;;0.03;;
17947;SDS011;9099;47.958;11.366;2023-12-22T02:07:11;0.75;;;0.20;;
17947;SDS011;9099;47.958;11.366;2023-12-22T02:09:38;0.47;;;0.20;;
17947;SDS011;9099;47.958;11.366;2023-12-22T02:12:05;0.25;;;0.10;;
17947;SDS011;9099;47.958;11.366;2023-12-22T02:14:32;0.20;;;0.00;;
17947;SDS011;9099;47.958;11.366;2023-12-22T02:17:05;0.38;;;0.10;;
17947;SDS011;9099;47.958;11.366;2023-12-22T02:19:41;0.45;;;0.15;;
17947;SDS011;9099;47.958;11.366;2023-12-22T02:22:09;0.43;;;0.13;;
17947;SDS011;9099;47.958;11.366;2023-12-22T02:24:38;0.10;;;0.10;;
17947;SDS011;9099;47.958;11.366;2023-12-22T02:27:06;0.70;;;0.20;;
17947;SDS011;9099;47.958;11.366;2023-12-22T02:29:41;0.98;;;0.20;;
17947;SDS011;9099;47.958;11.366;2023-12-22T02:32:12;0.55;;;0.30;;
17947;SDS011;9099;47.958;11.366;2023-12-22T02:34:47;0.13;;;0.10;;
17947;SDS011;9099;47.958;11.366;2023-12-22T02:37:18;0.20;;;0.20;;
17947;SDS011;9099;47.958;11.366;2023-12-22T02:39:49;0.22;;;0.10;;
17947;SDS011;9099;47.958;11.366;2023-12-22T02:42:16;0.10;;;0.00;;
17947;SDS011;9099;47.958;11.366;2023-12-22T02:44:44;0.08;;;0.05;;
17947;SDS011;9099;47.958;11.366;2023-12-22T02:47:11;0.00;;;0.00;;
17947;SDS011;9099;47.958;11.366;2023-12-22T02:49:38;0.00;;;0.00;;
17947;SDS011;9099;47.958;11.366;2023-12-22T02:52:05;0.22;;;0.00;;
17947;SDS011;9099;47.958;11.366;2023-12-22T02:54:32;0.00;;;0.00;;
17947;SDS011;9099;47.958;11.366;2023-12-22T02:57:00;0.05;;;0.03;;
17947;SDS011;9099;47.958;11.366;2023-12-22T02:59:27;0.10;;;0.07;;
17947;SDS011;9099;47.958;11.366;2023-12-22T03:01:54;0.00;;;0.00;;
17947;SDS011;9099;47.958;11.366;2023-12-22T03:04:21;0.10;;;0.00;;
17947;SDS011;9099;47.958;11.366;2023-12-22T03:06:48;0.43;;;0.03;;
17947;SDS011;9099;47.958;11.366;2023-12-22T03:09:14;0.10;;;0.00;;
17947;SDS011;9099;47.958;11.366;2023-12-22T03:11:41;0.00;;;0.00;;
17947;SDS011;9099;47.958;11.366;2023-12-22T03:14:10;0.52;;;0.10;;
17947;SDS011;9099;47.958;11.366;2023-12-22T03:16:36;0.53;;;0.10;;
17947;SDS011;9099;47.958;11.366;2023-12-22T03:19:03;0.20;;;0.20;;
17947;SDS011;9099;47.958;11.366;2023-12-22T03:21:30;0.13;;;0.10;;
17947;SDS011;9099;47.958;11.366;2023-12-22T03:23:57;1.23;;;0.30;;
17947;SDS011;9099;47.958;11.366;2023-12-22T03:26:26;0.43;;;0.10;;
17947;SDS011;9099;47.958;11.366;2023-12-22T03:28:52;1.25;;;0.38;;
17947;SDS011;9099;47.958;11.366;2023-12-22T03:31:21;1.00;;;0.37;;
17947;SDS011;9099;47.958;11.366;2023-12-22T03:33:47;1.35;;;0.30;;
17947;SDS011;9099;47.958;11.366;2023-12-22T03:36:14;0.53;;;0.33;;
17947;SDS011;9099;47.958;11.366;2023-12-22T03:38:41;1.10;;;0.40;;
17947;SDS011;9099;47.958;11.366;2023-12-22T03:41:08;0.63;;;0.20;;
17947;SDS011;9099;47.958;11.366;2023-12-22T03:43:34;0.98;;;0.10;;
17947;SDS011;9099;47.958;11.366;2023-12-22T03:46:01;0.60;;;0.20;;
17947;SDS011;9099;47.958;11.366;2023-12-22T03:48:30;1.75;;;0.20;;
17947;SDS011;9099;47.958;11.366;2023-12-22T03:50:57;0.30;;;0.10;;
17947;SDS011;9099;47.958;11.366;2023-12-22T03:53:23;0.43;;;0.20;;
17947;SDS011;9099;47.958;11.366;2023-12-22T03:55:50;0.23;;;0.10;;
17947;SDS011;9099;47.958;11.366;2023-12-22T03:58:17;1.00;;;0.20;;
17947;SDS011;9099;47.958;11.366;2023-12-22T04:00:44;1.60;;;0.37;;
17947;SDS011;9099;47.958;11.366;2023-12-22T04:03:11;0.60;;;0.28;;
17947;SDS011;9099;47.958;11.366;2023-12-22T04:05:39;0.60;;;0.30;;
17947;SDS011;9099;47.958;11.366;2023-12-22T04:08:06;0.98;;;0.30;;
17947;SDS011;9099;47.958;11.366;2023-12-22T04:10:32;0.52;;;0.30;;
17947;SDS011;9099;47.958;11.366;2023-12-22T04:12:59;1.70;;;0.50;;
17947;SDS011;9099;47.958;11.366;2023-12-22T04:15:26;2.30;;;0.50;;
17947;SDS011;9099;47.958;11.366;2023-12-22T04:17:53;0.20;;;0.20;;
17947;SDS011;9099;47.958;11.366;2023-12-22T04:20:20;1.00;;;0.38;;
17947;SDS011;9099;47.958;11.366;2023-12-22T04:22:48;1.20;;;0.25;;
17947;SDS011;9099;47.958;11.366;2023-12-22T04:25:15;0.52;;;0.30;;
17947;SDS011;9099;47.958;11.366;2023-12-22T04:27:43;0.50;;;0.20;;
17947;SDS011;9099;47.958;11.366;2023-12-22T04:30:10;0.30;;;0.20;;
17947;SDS011;9099;47.958;11.366;2023-12-22T04:32:37;1.35;;;0.25;;
17947;SDS011;9099;47.958;11.366;2023-12-22T04:35:04;0.60;;;0.22;;
17947;SDS011;9099;47.958;11.366;2023-12-22T04:37:31;0.20;;;0.20;;
17947;SDS011;9099;47.958;11.366;2023-12-22T04:39:59;1.08;;;0.40;;
17947;SDS011;9099;47.958;11.366;2023-12-22T04:42:26;1.52;;;0.50;;
17947;SDS011;9099;47.958;11.366;2023-12-22T04:44:53;1.30;;;0.40;;
17947;SDS011;9099;47.958;11.366;2023-12-22T04:47:20;0.55;;;0.40;;
17947;SDS011;9099;47.958;11.366;2023-12-22T04:49:47;1.23;;;0.40;;
17947;SDS011;9099;47.958;11.366;2023-12-22T04:52:14;2.50;;;0.60;;
17947;SDS011;9099;47.958;11.366;2023-12-22T04:54:40;1.17;;;0.40;;
17947;SDS011;9099;47.958;11.366;2023-12-22T04:57:09;1.60;;;0.70;;
17947;SDS011;9099;47.958;11.366;2023-12-22T04:59:35;1.20;;;0.40;;
17947;SDS011;9099;47.958;11.366;2023-12-22T05:02:02;0.90;;;0.43;;
17947;SDS011;9099;47.958;11.366;2023-12-22T05:04:29;1.25;;;0.35;;
17947;SDS011;9099;47.958;11.366;2023-12-22T05:06:56;1.35;;;0.35;;
17947;SDS011;9099;47.958;11.366;2023-12-22T05:09:23;1.25;;;0.40;;
17947;SDS011;9099;47.958;11.366;2023-12-22T05:11:50;0.50;;;0.35;;
17947;SDS011;9099;47.958;11.366;2023-12-22T05:14:19;1.50;;;0.60;;
17947;SDS011;9099;47.958;11.366;2023-12-22T05:16:45;0.70;;;0.40;;
17947;SDS011;9099;47.958;11.366;2023-12-22T05:19:12;1.25;;;0.20;;
17947;SDS011;9099;47.958;11.366;2023-12-22T05:21:39;0.52;;;0.38;;
17947;SDS011;9099;47.958;11.366;2023-12-22T05:24:06;1.75;;;0.50;;
17947;SDS011;9099;47.958;11.366;2023-12-22T05:26:32;1.35;;;0.43;;
17947;SDS011;9099;47.958;11.366;2023-12-22T05:29:00;2.65;;;1.27;;
17947;SDS011;9099;47.958;11.366;2023-12-22T05:31:28;0.70;;;0.45;;
17947;SDS011;9099;47.958;11.366;2023-12-22T05:33:56;1.55;;;0.63;;
17947;SDS011;9099;47.958;11.366;2023-12-22T05:36:23;0.98;;;0.47;;
17947;SDS011;9099;47.958;11.366;2023-12-22T05:38:51;1.83;;;0.68;;
17947;SDS011;9099;47.958;11.366;2023-12-22T05:41:17;0.57;;;0.35;;
17947;SDS011;9099;47.958;11.366;2023-12-22T05:43:44;2.60;;;0.40;;
17947;SDS011;9099;47.958;11.366;2023-12-22T05:46:11;0.38;;;0.28;;
17947;SDS011;9099;47.958;11.366;2023-12-22T05:48:39;3.13;;;0.60;;
17947;SDS011;9099;47.958;11.366;2023-12-22T05:51:06;1.52;;;0.50;;
17947;SDS011;9099;47.958;11.366;2023-12-22T05:53:38;1.67;;;0.60;;
17947;SDS011;9099;47.958;11.366;2023-12-22T05:56:16;0.63;;;0.40;;
17947;SDS011;9099;47.958;11.366;2023-12-22T05:58:44;1.58;;;0.60;;
17947;SDS011;9099;47.958;11.366;2023-12-22T06:01:13;0.40;;;0.32;;
17947;SDS011;9099;47.958;11.366;2023-12-22T06:03:43;1.55;;;0.40;;
17947;SDS011;9099;47.958;11.366;2023-12-22T06:06:10;1.08;;;0.40;;
17947;SDS011;9099;47.958;11.366;2023-12-22T06:08:36;1.15;;;0.52;;
17947;SDS011;9099;47.958;11.366;2023-12-22T06:11:03;0.60;;;0.40;;
17947;SDS011;9099;47.958;11.366;2023-12-22T06:13:31;0.88;;;0.50;;
17947;SDS011;9099;47.958;11.366;2023-12-22T06:15:57;0.30;;;0.30;;
17947;SDS011;9099;47.958;11.366;2023-12-22T06:18:24;2.42;;;0.60;;
17947;SDS011;9099;47.958;11.366;2023-12-22T06:20:53;2.58;;;0.77;;
17947;SDS011;9099;47.958;11.366;2023-12-22T06:23:20;0.90;;;0.40;;
17947;SDS011;9099;47.958;11.366;2023-12-22T06:25:46;0.73;;;0.25;;
17947;SDS011;9099;47.958;11.366;2023-12-22T06:28:13;2.25;;;0.40;;
17947;SDS011;9099;47.958;11.366;2023-12-22T06:30:42;1.65;;;0.50;;
17947;SDS011;9099;47.958;11.366;2023-12-22T06:33:09;1.70;;;0.40;;
17947;SDS011;9099;47.958;11.366;2023-12-22T06:35:36;1.10;;;0.47;;
17947;SDS011;9099;47.958;11.366;2023-12-22T06:38:07;1.42;;;0.35;;
17947;SDS011;9099;47.958;11.366;2023-12-22T06:40:36;1.55;;;0.60;;
17947;SDS011;9099;47.958;11.366;2023-12-22T06:43:03;1.25;;;0.60;;
17947;SDS011;9099;47.958;11.366;2023-12-22T06:45:30;1.92;;;0.57;;
17947;SDS011;9099;47.958;11.366;2023-12-22T06:47:57;1.13;;;0.52;;
17947;SDS011;9099;47.958;11.366;2023-12-22T06:50:24;0.68;;;0.30;;
17947;SDS011;9099;47.958;11.366;2023-12-22T06:52:51;0.80;;;0.40;;
17947;SDS011;9099;47.958;11.366;2023-12-22T06:55:19;1.20;;;0.65;;
17947;SDS011;9099;47.958;11.366;2023-12-22T06:57:46;1.85;;;0.50;;
17947;SDS011;9099;47.958;11.366;2023-12-22T07:00:13;0.95;;;0.50;;
17947;SDS011;9099;47.958;11.366;2023-12-22T07:02:40;1.50;;;0.60;;
17947;SDS011;9099;47.958;11.366;2023-12-22T07:07:57;2.20;;;0.98;;
17947;SDS011;9099;47.958;11.366;2023-12-22T07:10:25;2.28;;;0.77;;
17947;SDS011;9099;47.958;11.366;2023-12-22T07:12:52;3.35;;;0.75;;
17947;SDS011;9099;47.958;11.366;2023-12-22T07:15:19;1.95;;;0.50;;
17947;SDS011;9099;47.958;11.366;2023-12-22T07:17:46;2.22;;;0.88;;
17947;SDS011;9099;47.958;11.366;2023-12-22T07:20:13;1.35;;;0.70;;
17947;SDS011;9099;47.958;11.366;2023-12-22T07:22:40;1.95;;;0.52;;
17947;SDS011;9099;47.958;11.366;2023-12-22T07:25:07;2.53;;;0.55;;
17947;SDS011;9099;47.958;11.366;2023-12-22T07:27:36;2.03;;;0.77;;
17947;SDS011;9099;47.958;11.366;2023-12-22T07:30:03;1.58;;;0.85;;
17947;SDS011;9099;47.958;11.366;2023-12-22T07:32:30;1.73;;;0.68;;
17947;SDS011;9099;47.958;11.366;2023-12-22T07:34:57;2.25;;;0.82;;
17947;SDS011;9099;47.958;11.366;2023-12-22T07:37:24;2.72;;;0.73;;
17947;SDS011;9099;47.958;11.366;2023-12-22T07:39:51;1.33;;;0.80;;
17947;SDS011;9099;47.958;11.366;2023-12-22T07:42:18;2.58;;;1.00;;
17947;SDS011;9099;47.958;11.366;2023-12-22T07:44:46;1.83;;;0.80;;
17947;SDS011;9099;47.958;11.366;2023-12-22T07:47:13;2.13;;;0.65;;
17947;SDS011;9099;47.958;11.366;2023-12-22T07:49:40;3.10;;;0.95;;
17947;SDS011;9099;47.958;11.366;2023-12-22T07:52:07;1.92;;;0.80;;
17947;SDS011;9099;47.958;11.366;2023-12-22T07:54:34;1.77;;;0.70;;
17947;SDS011;9099;47.958;11.366;2023-12-22T07:57:02;1.95;;;0.70;;
17947;SDS011;9099;47.958;11.366;2023-12-22T07:59:29;1.92;;;0.60;;
17947;SDS011;9099;47.958;11.366;2023-12-22T08:01:57;1.55;;;0.55;;
17947;SDS011;9099;47.958;11.366;2023-12-22T08:04:24;1.88;;;0.70;;
17947;SDS011;9099;47.958;11.366;2023-12-22T08:06:51;2.83;;;0.50;;
17947;SDS011;9099;47.958;11.366;2023-12-22T08:09:18;1.17;;;0.43;;
17947;SDS011;9099;47.958;11.366;2023-12-22T08:11:45;3.08;;;0.80;;
17947;SDS011;9099;47.958;11.366;2023-12-22T08:14:12;0.73;;;0.60;;
17947;SDS011;9099;47.958;11.366;2023-12-22T08:16:39;1.10;;;0.70;;
17947;SDS011;9099;47.958;11.366;2023-12-22T08:19:07;3.03;;;0.70;;
17947;SDS011;9099;47.958;11.366;2023-12-22T08:21:34;2.50;;;0.80;;
17947;SDS011;9099;47.958;11.366;2023-12-22T08:24:01;1.20;;;0.70;;
17947;SDS011;9099;47.958;11.366;2023-12-22T08:26:28;2.33;;;0.70;;
17947;SDS011;9099;47.958;11.366;2023-12-22T08:28:55;2.13;;;0.70;;
17947;SDS011;9099;47.958;11.366;2023-12-22T08:31:22;2.20;;;0.60;;
17947;SDS011;9099;47.958;11.366;2023-12-22T08:33:48;0.60;;;0.40;;
17947;SDS011;9099;47.958;11.366;2023-12-22T08:36:17;1.20;;;0.50;;
17947;SDS011;9099;47.958;11.366;2023-12-22T08:38:44;1.13;;;0.63;;
17947;SDS011;9099;47.958;11.366;2023-12-22T08:41:10;0.98;;;0.50;;
17947;SDS011;9099;47.958;11.366;2023-12-22T08:43:39;1.52;;;0.63;;
17947;SDS011;9099;47.958;11.366;2023-12-22T08:46:07;3.50;;;0.70;;
17947;SDS011;9099;47.958;11.366;2023-12-22T08:48:34;2.13;;;0.88;;
17947;SDS011;9099;47.958;11.366;2023-12-22T08:51:01;2.40;;;0.60;;
17947;SDS011;9099;47.958;11.366;2023-12-22T08:53:30;0.90;;;0.50;;
17947;SDS011;9099;47.958;11.366;2023-12-22T08:56:01;1.67;;;0.77;;
17947;SDS011;9099;47.958;11.366;2023-12-22T08:58:28;1.52;;;0.60;;
17947;SDS011;9099;47.958;11.366;2023-12-22T09:00:56;2.33;;;0.80;;
17947;SDS011;9099;47.958;11.366;2023-12-22T09:03:22;2.70;;;0.77;;
17947;SDS011;9099;47.958;11.366;2023-12-22T09:05:51;1.80;;;0.73;;
17947;SDS011;9099;47.958;11.366;2023-12-22T09:08:18;1.33;;;0.77;;
17947;SDS011;9099;47.958;11.366;2023-12-22T09:10:46;2.58;;;0.65;;
17947;SDS011;9099;47.958;11.366;2023-12-22T09:13:14;1.65;;;0.70;;
17947;SDS011;9099;47.958;11.366;2023-12-22T09:15:41;2.15;;;0.70;;
17947;SDS011;9099;47.958;11.366;2023-12-22T09:18:11;1.00;;;0.77;;
17947;SDS011;9099;47.958;11.366;2023-12-22T09:20:38;1.02;;;0.55;;
17947;SDS011;9099;47.958;11.366;2023-12-22T09:23:06;1.95;;;0.73;;
17947;SDS011;9099;47.958;11.366;2023-12-22T09:25:34;1.38;;;0.50;;
17947;SDS011;9099;47.958;11.366;2023-12-22T09:28:03;2.97;;;0.57;;
17947;SDS011;9099;47.958;11.366;2023-12-22T09:30:31;1.45;;;0.82;;
17947;SDS011;9099;47.958;11.366;2023-12-22T09:32:57;2.40;;;0.60;;
17947;SDS011;9099;47.958;11.366;2023-12-22T09:35:24;3.28;;;0.60;;
17947;SDS011;9099;47.958;11.366;2023-12-22T09:37:51;1.77;;;0.77;;
17947;SDS011;9099;47.958;11.366;2023-12-22T09:40:19;2.15;;;0.85;;
17947;SDS011;9099;47.958;11.366;2023-12-22T09:42:47;2.35;;;0.70;;
17947;SDS011;9099;47.958;11.366;2023-12-22T09:45:16;1.38;;;0.70;;
17947;SDS011;9099;47.958;11.366;2023-12-22T09:47:44;3.08;;;0.80;;
17947;SDS011;9099;47.958;11.366;2023-12-22T09:50:13;0.95;;;0.70;;
17947;SDS011;9099;47.958;11.366;2023-12-22T09:52:42;1.75;;;0.88;;
17947;SDS011;9099;47.958;11.366;2023-12-22T09:55:10;2.00;;;1.00;;
17947;SDS011;9099;47.958;11.366;2023-12-22T09:57:38;3.67;;;1.45;;
17947;SDS011;9099;47.958;11.366;2023-12-22T10:00:06;3.35;;;1.60;;
17947;SDS011;9099;47.958;11.366;2023-12-22T10:02:36;4.70;;;1.50;;
17947;SDS011;9099;47.958;11.366;2023-12-22T10:05:03;4.82;;;2.25;;
17947;SDS011;9099;47.958;11.366;2023-12-22T10:07:30;4.82;;;1.63;;
17947;SDS011;9099;47.958;11.366;2023-12-22T10:09:58;1.67;;;0.70;;
17947;SDS011;9099;47.958;11.366;2023-12-22T10:12:26;2.53;;;0.98;;
17947;SDS011;9099;47.958;11.366;2023-12-22T10:14:55;2.88;;;1.90;;
17947;SDS011;9099;47.958;11.366;2023-12-22T10:17:23;3.70;;;1.13;;
17947;SDS011;9099;47.958;11.366;2023-12-22T10:19:51;6.45;;;2.55;;
17947;SDS011;9099;47.958;11.366;2023-12-22T10:22:18;5.63;;;2.63;;
17947;SDS011;9099;47.958;11.366;2023-12-22T10:24:48;3.28;;;1.20;;
17947;SDS011;9099;47.958;11.366;2023-12-22T10:27:15;1.90;;;1.23;;
17947;SDS011;9099;47.958;11.366;2023-12-22T10:29:47;3.95;;;1.05;;
17947;SDS011;9099;47.958;11.366;2023-12-22T10:32:14;1.83;;;1.23;;
17947;SDS011;9099;47.958;11.366;2023-12-22T10:34:41;1.52;;;0.80;;
17947;SDS011;9099;47.958;11.366;2023-12-22T10:37:09;2.25;;;0.45;;
17947;SDS011;9099;47.958;11.366;2023-12-22T10:39:37;2.38;;;0.45;;
17947;SDS011;9099;47.958;11.366;2023-12-22T10:42:05;1.00;;;0.68;;
17947;SDS011;9099;47.958;11.366;2023-12-22T10:44:32;1.40;;;0.45;;
17947;SDS011;9099;47.958;11.366;2023-12-22T10:46:59;2.92;;;0.70;;
17947;SDS011;9099;47.958;11.366;2023-12-22T10:49:27;2.13;;;0.80;;
17947;SDS011;9099;47.958;11.366;2023-12-22T10:51:54;1.17;;;0.50;;
17947;SDS011;9099;47.958;11.366;2023-12-22T10:54:22;0.80;;;0.35;;
17947;SDS011;9099;47.958;11.366;2023-12-22T10:56:49;2.22;;;0.50;;
17947;SDS011;9099;47.958;11.366;2023-12-22T10:59:18;0.85;;;0.60;;
17947;SDS011;9099;47.958;11.366;2023-12-22T11:01:48;1.83;;;0.65;;
17947;SDS011;9099;47.958;11.366;2023-12-22T11:04:19;2.28;;;0.65;;
17947;SDS011;9099;47.958;11.366;2023-12-22T11:06:49;2.25;;;0.60;;
17947;SDS011;9099;47.958;11.366;2023-12-22T11:09:18;1.33;;;0.63;;
17947;SDS011;9099;47.958;11.366;2023-12-22T11:11:49;2.35;;;0.70;;
17947;SDS011;9099;47.958;11.366;2023-12-22T11:14:17;0.70;;;0.43;;
17947;SDS011;9099;47.958;11.366;2023-12-22T11:16:45;2.05;;;0.80;;
17947;SDS011;9099;47.958;11.366;2023-12-22T11:19:13;1.40;;;0.60;;
17947;SDS011;9099;47.958;11.366;2023-12-22T11:21:40;2.08;;;0.65;;
17947;SDS011;9099;47.958;11.366;2023-12-22T11:24:08;1.08;;;0.60;;
17947;SDS011;9099;47.958;11.366;2023-12-22T11:26:39;2.95;;;0.47;;
17947;SDS011;9099;47.958;11.366;2023-12-22T11:29:10;1.38;;;0.60;;
17947;SDS011;9099;47.958;11.366;2023-12-22T11:31:38;0.82;;;0.50;;
17947;SDS011;9099;47.958;11.366;2023-12-22T11:34:06;1.85;;;0.50;;
17947;SDS011;9099;47.958;11.366;2023-12-22T11:36:34;1.25;;;0.80;;
17947;SDS011;9099;47.958;11.366;2023-12-22T11:39:05;3.45;;;0.77;;
17947;SDS011;9099;47.958;11.366;2023-12-22T11:41:33;2.35;;;0.98;;
17947;SDS011;9099;47.958;11.366;2023-12-22T11:44:01;0.93;;;0.60;;
17947;SDS011;9099;47.958;11.366;2023-12-22T11:46:32;3.35;;;1.00;;
17947;SDS011;9099;47.958;11.366;2023-12-22T11:48:59;3.42;;;0.98;;
17947;SDS011;9099;47.958;11.366;2023-12-22T11:51:30;1.77;;;0.63;;
17947;SDS011;9099;47.958;11.366;2023-12-22T11:53:59;2.50;;;1.00;;
17947;SDS011;9099;47.958;11.366;2023-12-22T11:56:26;2.15;;;0.77;;
17947;SDS011;9099;47.958;11.366;2023-12-22T11:58:55;1.58;;;0.85;;
17947;SDS011;9099;47.958;11.366;2023-12-22T12:01:24;3.75;;;0.93;;
17947;SDS011;9099;47.958;11.366;2023-12-22T12:03:55;1.08;;;0.50;;
17947;SDS011;9099;47.958;11.366;2023-12-22T12:06:30;3.30;;;1.10;;
17947;SDS011;9099;47.958;11.366;2023-12-22T12:08:59;2.22;;;0.85;;
17947;SDS011;9099;47.958;11.366;2023-12-22T12:14:29;1.85;;;0.80;;
17947;SDS011;9099;47.958;11.366;2023-12-22T12:16:59;1.13;;;0.60;;
17947;SDS011;9099;47.958;11.366;2023-12-22T12:19:32;2.72;;;0.95;;
17947;SDS011;9099;47.958;11.366;2023-12-22T12:22:00;1.98;;;0.60;;
17947;SDS011;9099;47.958;11.366;2023-12-22T12:24:27;2.90;;;0.95;;
17947;SDS011;9099;47.958;11.366;2023-12-22T12:26:53;1.50;;;0.90;;
17947;SDS011;9099;47.958;11.366;2023-12-22T12:29:20;1.45;;;0.70;;
17947;SDS011;9099;47.958;11.366;2023-12-22T12:31:48;1.65;;;0.65;;
17947;SDS011;9099;47.958;11.366;2023-12-22T12:34:15;1.33;;;0.70;;
17947;SDS011;9099;47.958;11.366;2023-12-22T12:36:47;2.15;;;0.77;;
17947;SDS011;9099;47.958;11.366;2023-12-22T12:39:15;3.95;;;0.80;;
17947;SDS011;9099;47.958;11.366;2023-12-22T12:41:44;2.35;;;0.80;;
17947;SDS011;9099;47.958;11.366;2023-12-22T12:44:19;2.17;;;0.60;;
17947;SDS011;9099;47.958;11.366;2023-12-22T12:46:47;1.10;;;0.60;;
17947;SDS011;9099;47.958;11.366;2023-12-22T12:49:14;2.38;;;0.80;;
17947;SDS011;9099;47.958;11.366;2023-12-22T12:51:41;1.80;;;0.55;;
17947;SDS011;9099;47.958;11.366;2023-12-22T12:54:11;1.52;;;0.82;;
17947;SDS011;9099;47.958;11.366;2023-12-22T12:56:39;0.90;;;0.70;;
17947;SDS011;9099;47.958;11.366;2023-12-22T12:59:07;2.17;;;0.80;;
17947;SDS011;9099;47.958;11.366;2023-12-22T13:01:37;0.60;;;0.60;;
17947;SDS011;9099;47.958;11.366;2023-12-22T13:04:05;2.00;;;0.70;;
17947;SDS011;9099;47.958;11.366;2023-12-22T13:06:32;2.03;;;0.82;;
17947;SDS011;9099;47.958;11.366;2023-12-22T13:08:59;0.98;;;0.60;;
17947;SDS011;9099;47.958;11.366;2023-12-22T13:11:28;2.05;;;0.73;;
17947;SDS011;9099;47.958;11.366;2023-12-22T13:13:57;2.38;;;0.77;;
17947;SDS011;9099;47.958;11.366;2023-12-22T13:16:24;3.28;;;0.95;;
17947;SDS011;9099;47.958;11.366;2023-12-22T13:18:54;1.77;;;0.60;;
17947;SDS011;9099;47.958;11.366;2023-12-22T13:21:22;2.45;;;0.85;;
17947;SDS011;9099;47.958;11.366;2023-12-22T13:26:37;1.45;;;0.75;;
17947;SDS011;9099;47.958;11.366;2023-12-22T13:29:05;1.98;;;0.65;;
17947;SDS011;9099;47.958;11.366;2023-12-22T13:31:31;1.52;;;0.60;;
17947;SDS011;9099;47.958;11.366;2023-12-22T13:33:59;1.33;;;0.40;;
17947;SDS011;9099;47.958;11.366;2023-12-22T13:36:26;1.17;;;0.50;;
17947;SDS011;9099;47.958;11.366;2023-12-22T13:38:53;1.63;;;0.70;;
17947;SDS011;9099;47.958;11.366;2023-12-22T13:41:22;0.50;;;0.50;;
17947;SDS011;9099;47.958;11.366;2023-12-22T13:43:51;1.20;;;0.30;;
17947;SDS011;9099;47.958;11.366;2023-12-22T13:46:21;1.75;;;0.57;;
17947;SDS011;9099;47.958;11.366;2023-12-22T13:48:53;1.10;;;0.30;;
17947;SDS011;9099;47.958;11.366;2023-12-22T13:51:20;0.75;;;0.40;;
17947;SDS011;9099;47.958;11.366;2023-12-22T13:53:47;0.40;;;0.40;;
17947;SDS011;9099;47.958;11.366;2023-12-22T13:56:15;1.10;;;0.50;;
17947;SDS011;9099;47.958;11.366;2023-12-22T13:58:45;0.82;;;0.30;;
17947;SDS011;9099;47.958;11.366;2023-12-22T14:01:14;0.68;;;0.60;;
17947;SDS011;9099;47.958;11.366;2023-12-22T14:03:42;1.13;;;0.50;;
17947;SDS011;9099;47.958;11.366;2023-12-22T14:06:09;0.20;;;0.20;;
17947;SDS011;9099;47.958;11.366;2023-12-22T14:08:38;0.30;;;0.20;;
17947;SDS011;9099;47.958;11.366;2023-12-22T14:11:06;0.68;;;0.20;;
17947;SDS011;9099;47.958;11.366;2023-12-22T14:13:33;0.20;;;0.10;;
17947;SDS011;9099;47.958;11.366;2023-12-22T14:16:04;0.65;;;0.10;;
17947;SDS011;9099;47.958;11.366;2023-12-22T14:18:33;0.32;;;0.20;;
17947;SDS011;9099;47.958;11.366;2023-12-22T14:21:00;0.68;;;0.15;;
17947;SDS011;9099;47.958;11.366;2023-12-22T14:23:29;0.70;;;0.20;;
17947;SDS011;9099;47.958;11.366;2023-12-22T14:25:55;0.47;;;0.28;;
17947;SDS011;9099;47.958;11.366;2023-12-22T14:28:22;0.10;;;0.10;;
17947;SDS011;9099;47.958;11.366;2023-12-22T14:30:49;0.50;;;0.13;;
17947;SDS011;9099;47.958;11.366;2023-12-22T14:33:16;1.33;;;0.30;;
17947;SDS011;9099;47.958;11.366;2023-12-22T14:35:45;0.20;;;0.13;;
17947;SDS011;9099;47.958;11.366;2023-12-22T14:38:12;0.10;;;0.10;;
17947;SDS011;9099;47.958;11.366;2023-12-22T14:40:39;0.68;;;0.20;;
17947;SDS011;9099;47.958;11.366;2023-12-22T14:43:05;0.10;;;0.10;;
17947;SDS011;9099;47.958;11.366;2023-12-22T14:45:32;0.20;;;0.10;;
17947;SDS011;9099;47.958;11.366;2023-12-22T14:47:59;0.10;;;0.10;;
17947;SDS011;9099;47.958;11.366;2023-12-22T14:50:26;0.10;;;0.10;;
17947;SDS011;9099;47.958;11.366;2023-12-22T14:52:54;0.10;;;0.10;;
17947;SDS011;9099;47.958;11.366;2023-12-22T14:55:21;0.00;;;0.00;;
17947;SDS011;9099;47.958;11.366;2023-12-22T14:57:48;0.10;;;0.10;;
17947;SDS011;9099;47.958;11.366;2023-12-22T15:00:15;0.30;;;0.15;;